sensor_id;sensor_type;location;lat;lon;timestamp;pressure;altitude;pressure_sealevel;temperature;humidity
48800;BME280;34611;47.964;7.982;2022-07-04T00:01:49;96972.78;;;17.69;69.00
48800;BME280;34611;47.964;7.982;2022-07-04T00:08:49;96987.72;;;17.68;68.92
48800;BME280;34611;47.964;7.982;2022-07-04T00:15:49;96986.75;;;17.69;68.94
48800;BME280;34611;47.964;7.982;2022-07-04T00:22:49;96999.88;;;17.69;68.80
48800;BME280;34611;47.964;7.982;2022-07-04T00:29:50;96984.13;;;17.69;68.88
48800;BME280;34611;47.964;7.982;2022-07-04T00:36:50;96999.06;;;17.69;68.89
48800;BME280;34611;47.964;7.982;2022-07-04T00:44:00;97025.38;;;17.69;68.88
48800;BME280;34611;47.964;7.982;2022-07-04T00:51:01;97008.75;;;17.68;68.95
48800;BME280;34611;47.964;7.982;2022-07-04T00:58:01;97019.91;;;17.70;68.99
48800;BME280;34611;47.964;7.982;2022-07-04T01:05:02;97027.16;;;17.68;68.90
48800;BME280;34611;47.964;7.982;2022-07-04T01:12:02;97035.88;;;17.69;68.94
48800;BME280;34611;47.964;7.982;2022-07-04T01:19:03;97022.75;;;17.69;69.02
48800;BME280;34611;47.964;7.982;2022-07-04T01:26:03;97015.66;;;17.69;68.99
48800;BME280;34611;47.964;7.982;2022-07-04T01:33:03;97014.84;;;17.69;68.91
48800;BME280;34611;47.964;7.982;2022-07-04T01:40:04;97020.91;;;17.69;68.95
48800;BME280;34611;47.964;7.982;2022-07-04T01:47:04;97026.19;;;17.69;68.94
48800;BME280;34611;47.964;7.982;2022-07-04T01:54:05;97029.78;;;17.68;69.08
48800;BME280;34611;47.964;7.982;2022-07-04T02:01:07;97030.63;;;17.69;68.98
48800;BME280;34611;47.964;7.982;2022-07-04T02:08:27;97031.59;;;17.68;68.95
48800;BME280;34611;47.964;7.982;2022-07-04T02:15:47;97051.47;;;17.70;68.95
48800;BME280;34611;47.964;7.982;2022-07-04T02:22:47;97064.63;;;17.70;68.91
48800;BME280;34611;47.964;7.982;2022-07-04T02:29:48;97081.38;;;17.69;69.06
48800;BME280;34611;47.964;7.982;2022-07-04T02:36:48;97089.28;;;17.69;68.95
48800;BME280;34611;47.964;7.982;2022-07-04T02:43:48;97077.94;;;17.69;69.06
48800;BME280;34611;47.964;7.982;2022-07-04T02:50:49;97067.44;;;17.69;69.06
48800;BME280;34611;47.964;7.982;2022-07-04T02:57:49;97064.81;;;17.69;69.00
48800;BME280;34611;47.964;7.982;2022-07-04T03:04:50;97068.25;;;17.69;68.99
48800;BME280;34611;47.964;7.982;2022-07-04T03:11:50;97068.25;;;17.69;69.02
48800;BME280;34611;47.964;7.982;2022-07-04T03:18:50;97070.06;;;17.69;69.01
48800;BME280;34611;47.964;7.982;2022-07-04T03:25:50;97072.69;;;17.69;69.24
48800;BME280;34611;47.964;7.982;2022-07-04T03:32:51;97065.63;;;17.69;68.99
48800;BME280;34611;47.964;7.982;2022-07-04T03:39:51;97069.22;;;17.68;69.09
48800;BME280;34611;47.964;7.982;2022-07-04T03:46:51;97049.84;;;17.69;68.98
48800;BME280;34611;47.964;7.982;2022-07-04T03:53:51;97063.81;;;17.70;68.96
48800;BME280;34611;47.964;7.982;2022-07-04T04:00:52;97049.03;;;17.69;68.98
48800;BME280;34611;47.964;7.982;2022-07-04T04:07:55;97041.94;;;17.69;69.04
48800;BME280;34611;47.964;7.982;2022-07-04T04:14:56;97071.69;;;17.70;69.08
48800;BME280;34611;47.964;7.982;2022-07-04T04:21:56;97068.25;;;17.69;69.06
48800;BME280;34611;47.964;7.982;2022-07-04T04:28:57;97084.84;;;17.70;69.14
48800;BME280;34611;47.964;7.982;2022-07-04T04:35:57;97087.47;;;17.70;69.19
48800;BME280;34611;47.964;7.982;2022-07-04T04:42:57;97108.34;;;17.71;69.21
48800;BME280;34611;47.964;7.982;2022-07-04T04:49:57;97138.22;;;17.70;69.06
48800;BME280;34611;47.964;7.982;2022-07-04T04:56:58;97172.41;;;17.70;69.07
48800;BME280;34611;47.964;7.982;2022-07-04T05:03:58;97183.94;;;17.69;69.13
48800;BME280;34611;47.964;7.982;2022-07-04T05:10:58;97186.41;;;17.71;69.18
48800;BME280;34611;47.964;7.982;2022-07-04T05:17:59;97161.91;;;17.70;69.10
48800;BME280;34611;47.964;7.982;2022-07-04T05:24:59;97151.56;;;17.69;69.08
48800;BME280;34611;47.964;7.982;2022-07-04T05:32:00;97127.72;;;17.70;69.15
48800;BME280;34611;47.964;7.982;2022-07-04T05:39:00;97116.38;;;17.70;69.03
48800;BME280;34611;47.964;7.982;2022-07-04T05:46:00;97099.78;;;17.69;69.22
48800;BME280;34611;47.964;7.982;2022-07-04T05:53:00;97091.91;;;17.69;69.07
48800;BME280;34611;47.964;7.982;2022-07-04T06:00:01;97064.81;;;17.69;69.13
48800;BME280;34611;47.964;7.982;2022-07-04T06:07:05;97053.28;;;17.70;69.02
48800;BME280;34611;47.964;7.982;2022-07-04T06:14:05;97051.66;;;17.69;69.09
48800;BME280;34611;47.964;7.982;2022-07-04T06:21:06;97077.75;;;17.70;69.04
48800;BME280;34611;47.964;7.982;2022-07-04T06:28:06;97064.63;;;17.70;69.13
48800;BME280;34611;47.964;7.982;2022-07-04T06:35:06;97089.94;;;17.71;69.12
48800;BME280;34611;47.964;7.982;2022-07-04T06:42:25;97097.00;;;17.71;69.19
48800;BME280;34611;47.964;7.982;2022-07-04T06:49:26;97100.59;;;17.70;69.02
48800;BME280;34611;47.964;7.982;2022-07-04T06:56:26;97092.72;;;17.70;69.17
48800;BME280;34611;47.964;7.982;2022-07-04T07:03:26;97096.16;;;17.70;69.16
48800;BME280;34611;47.964;7.982;2022-07-04T07:10:28;97090.91;;;17.70;69.04
48800;BME280;34611;47.964;7.982;2022-07-04T07:17:28;97110.97;;;17.71;69.03
48800;BME280;34611;47.964;7.982;2022-07-04T07:24:28;97114.56;;;17.70;69.16
48800;BME280;34611;47.964;7.982;2022-07-04T07:31:30;97124.13;;;17.71;69.14
48800;BME280;34611;47.964;7.982;2022-07-04T07:38:31;97123.31;;;17.71;69.10
48800;BME280;34611;47.964;7.982;2022-07-04T07:45:31;97114.56;;;17.70;69.18
48800;BME280;34611;47.964;7.982;2022-07-04T07:52:31;97103.25;;;17.70;69.15
48800;BME280;34611;47.964;7.982;2022-07-04T07:59:32;97091.75;;;17.71;69.12
48800;BME280;34611;47.964;7.982;2022-07-04T08:06:32;97086.50;;;17.71;69.17
48800;BME280;34611;47.964;7.982;2022-07-04T08:13:33;97083.88;;;17.71;69.14
48800;BME280;34611;47.964;7.982;2022-07-04T08:20:33;97069.88;;;17.70;69.29
48800;BME280;34611;47.964;7.982;2022-07-04T08:27:34;97068.09;;;17.71;69.04
48800;BME280;34611;47.964;7.982;2022-07-04T08:34:34;97063.63;;;17.71;69.07
48800;BME280;34611;47.964;7.982;2022-07-04T08:41:38;97055.75;;;17.71;69.22
48800;BME280;34611;47.964;7.982;2022-07-04T08:48:39;97066.28;;;17.71;69.00
48800;BME280;34611;47.964;7.982;2022-07-04T08:55:41;97055.75;;;17.71;69.13
48800;BME280;34611;47.964;7.982;2022-07-04T09:03:01;97071.53;;;17.71;69.29
48800;BME280;34611;47.964;7.982;2022-07-04T09:10:02;97075.78;;;17.72;69.26
48800;BME280;34611;47.964;7.982;2022-07-04T09:17:02;97066.28;;;17.71;69.22
48800;BME280;34611;47.964;7.982;2022-07-04T09:24:03;97050.50;;;17.71;69.10
48800;BME280;34611;47.964;7.982;2022-07-04T09:31:17;97053.13;;;17.71;69.24
48800;BME280;34611;47.964;7.982;2022-07-04T09:38:23;97056.56;;;17.72;69.14
48800;BME280;34611;47.964;7.982;2022-07-04T09:45:24;97059.19;;;17.72;69.19
48800;BME280;34611;47.964;7.982;2022-07-04T09:52:25;97055.75;;;17.71;69.12
48800;BME280;34611;47.964;7.982;2022-07-04T09:59:28;97050.50;;;17.71;69.30
48800;BME280;34611;47.964;7.982;2022-07-04T10:06:31;97055.75;;;17.71;69.12
48800;BME280;34611;47.964;7.982;2022-07-04T10:13:31;97054.94;;;17.71;69.17
48800;BME280;34611;47.964;7.982;2022-07-04T10:20:32;97053.13;;;17.71;69.10
48800;BME280;34611;47.964;7.982;2022-07-04T10:27:32;97064.44;;;17.72;69.17
48800;BME280;34611;47.964;7.982;2022-07-04T10:34:38;97065.25;;;17.72;69.20
48800;BME280;34611;47.964;7.982;2022-07-04T10:41:39;97058.19;;;17.73;69.14
48800;BME280;34611;47.964;7.982;2022-07-04T11:03:14;97068.72;;;17.73;69.22
48800;BME280;34611;47.964;7.982;2022-07-04T11:17:19;97049.34;;;17.74;69.14
48800;BME280;34611;47.964;7.982;2022-07-04T11:24:20;97036.19;;;17.74;69.42
48800;BME280;34611;47.964;7.982;2022-07-04T11:31:20;97039.63;;;17.74;69.24
48800;BME280;34611;47.964;7.982;2022-07-04T11:38:20;97035.38;;;17.73;69.25
48800;BME280;34611;47.964;7.982;2022-07-04T11:45:21;97023.84;;;17.74;69.23
48800;BME280;34611;47.964;7.982;2022-07-04T11:52:25;97020.25;;;17.75;69.35
48800;BME280;34611;47.964;7.982;2022-07-04T11:59:25;97018.59;;;17.74;69.20
48800;BME280;34611;47.964;7.982;2022-07-04T12:06:26;97018.59;;;17.74;69.17
48800;BME280;34611;47.964;7.982;2022-07-04T12:13:27;97020.25;;;17.75;69.27
48800;BME280;34611;47.964;7.982;2022-07-04T12:20:27;96997.56;;;17.74;69.38
48800;BME280;34611;47.964;7.982;2022-07-04T12:27:28;96997.56;;;17.74;69.33
48800;BME280;34611;47.964;7.982;2022-07-04T12:34:29;96981.78;;;17.74;69.33
48800;BME280;34611;47.964;7.982;2022-07-04T12:41:29;96966.81;;;17.75;69.29
48800;BME280;34611;47.964;7.982;2022-07-04T12:48:30;96954.50;;;17.75;69.30
48800;BME280;34611;47.964;7.982;2022-07-04T12:55:30;96950.88;;;17.76;69.36
48800;BME280;34611;47.964;7.982;2022-07-04T13:02:31;96947.44;;;17.76;69.54
48800;BME280;34611;47.964;7.982;2022-07-04T13:09:31;96960.41;;;17.77;69.53
48800;BME280;34611;47.964;7.982;2022-07-04T13:16:31;96951.69;;;17.77;69.47
48800;BME280;34611;47.964;7.982;2022-07-04T13:23:31;96963.84;;;17.78;69.51
48800;BME280;34611;47.964;7.982;2022-07-04T13:30:32;96964.66;;;17.78;69.36
48800;BME280;34611;47.964;7.982;2022-07-04T13:37:32;96946.25;;;17.78;69.48
48800;BME280;34611;47.964;7.982;2022-07-04T13:44:34;96941.00;;;17.78;69.51
48800;BME280;34611;47.964;7.982;2022-07-04T13:51:34;96946.91;;;17.80;69.58
48800;BME280;34611;47.964;7.982;2022-07-04T13:58:35;96950.34;;;17.81;69.56
48800;BME280;34611;47.964;7.982;2022-07-04T14:05:36;96953.19;;;17.79;69.59
48800;BME280;34611;47.964;7.982;2022-07-04T14:12:37;96955.81;;;17.79;69.74
48800;BME280;34611;47.964;7.982;2022-07-04T14:19:37;96959.25;;;17.80;69.57
48800;BME280;34611;47.964;7.982;2022-07-04T14:26:37;96955.81;;;17.79;69.56
48800;BME280;34611;47.964;7.982;2022-07-04T14:33:38;96950.56;;;17.79;69.60
48800;BME280;34611;47.964;7.982;2022-07-04T14:40:38;96943.47;;;17.80;69.48
48800;BME280;34611;47.964;7.982;2022-07-04T14:47:39;96938.22;;;17.80;69.57
48800;BME280;34611;47.964;7.982;2022-07-04T14:54:41;96935.41;;;17.82;69.55
48800;BME280;34611;47.964;7.982;2022-07-04T15:01:41;96933.78;;;17.80;69.55
48800;BME280;34611;47.964;7.982;2022-07-04T15:08:41;96932.78;;;17.82;69.42
48800;BME280;34611;47.964;7.982;2022-07-04T15:15:42;96930.16;;;17.82;69.68
48800;BME280;34611;47.964;7.982;2022-07-04T15:22:42;96908.16;;;17.83;69.77
48800;BME280;34611;47.964;7.982;2022-07-04T15:30:01;96907.97;;;17.84;69.72
48800;BME280;34611;47.964;7.982;2022-07-04T15:37:01;96899.09;;;17.85;69.80
48800;BME280;34611;47.964;7.982;2022-07-04T15:44:02;96917.97;;;17.89;69.93
48800;BME280;34611;47.964;7.982;2022-07-04T15:51:02;96923.41;;;17.87;69.91
48800;BME280;34611;47.964;7.982;2022-07-04T15:58:03;96926.69;;;17.89;69.88
48800;BME280;34611;47.964;7.982;2022-07-04T16:05:03;96937.19;;;17.89;69.95
48800;BME280;34611;47.964;7.982;2022-07-04T16:12:05;96943.47;;;17.88;69.80
48800;BME280;34611;47.964;7.982;2022-07-04T16:19:06;96943.09;;;17.91;69.93
48800;BME280;34611;47.964;7.982;2022-07-04T16:26:06;96941.31;;;17.92;69.98
48800;BME280;34611;47.964;7.982;2022-07-04T16:33:06;96943.09;;;17.91;69.98
48800;BME280;34611;47.964;7.982;2022-07-04T16:40:07;96940.47;;;17.91;69.87
48800;BME280;34611;47.964;7.982;2022-07-04T16:47:07;96929.97;;;17.91;69.93
48800;BME280;34611;47.964;7.982;2022-07-04T16:54:07;96943.09;;;17.91;69.92
48800;BME280;34611;47.964;7.982;2022-07-04T17:01:08;96952.66;;;17.92;69.87
48800;BME280;34611;47.964;7.982;2022-07-04T17:08:08;96945.56;;;17.93;70.04
48800;BME280;34611;47.964;7.982;2022-07-04T17:15:09;96949.84;;;17.94;69.97
48800;BME280;34611;47.964;7.982;2022-07-04T17:22:09;96962.00;;;17.95;69.91
48800;BME280;34611;47.964;7.982;2022-07-04T17:29:10;96964.63;;;17.95;70.05
48800;BME280;34611;47.964;7.982;2022-07-04T17:36:10;96972.53;;;17.95;69.92
48800;BME280;34611;47.964;7.982;2022-07-04T17:43:10;96984.69;;;17.96;69.93
48800;BME280;34611;47.964;7.982;2022-07-04T17:50:10;97001.44;;;17.95;69.92
48800;BME280;34611;47.964;7.982;2022-07-04T17:57:11;96985.50;;;17.96;69.94
48800;BME280;34611;47.964;7.982;2022-07-04T18:04:11;96982.88;;;17.96;69.85
48800;BME280;34611;47.964;7.982;2022-07-04T18:11:13;96978.44;;;17.97;69.73
48800;BME280;34611;47.964;7.982;2022-07-04T18:18:13;96979.44;;;17.96;69.93
48800;BME280;34611;47.964;7.982;2022-07-04T18:25:13;96966.94;;;17.98;69.75
48800;BME280;34611;47.964;7.982;2022-07-04T18:32:13;96976.81;;;17.96;69.96
48800;BME280;34611;47.964;7.982;2022-07-04T18:39:14;96984.69;;;17.96;69.99
48800;BME280;34611;47.964;7.982;2022-07-04T18:46:14;96986.31;;;17.97;69.81
48800;BME280;34611;47.964;7.982;2022-07-04T18:53:15;96982.88;;;17.96;69.95
48800;BME280;34611;47.964;7.982;2022-07-04T19:00:15;96982.06;;;17.96;69.94
48800;BME280;34611;47.964;7.982;2022-07-04T19:07:16;96988.13;;;17.96;70.01
48800;BME280;34611;47.964;7.982;2022-07-04T19:14:16;96994.38;;;17.95;69.90
48800;BME280;34611;47.964;7.982;2022-07-04T19:21:20;96999.63;;;17.95;69.88
48800;BME280;34611;47.964;7.982;2022-07-04T19:28:21;97011.16;;;17.94;69.88
48800;BME280;34611;47.964;7.982;2022-07-04T19:35:21;97019.88;;;17.95;69.87
48800;BME280;34611;47.964;7.982;2022-07-04T19:42:21;97026.78;;;17.96;69.77
48800;BME280;34611;47.964;7.982;2022-07-04T19:49:23;97038.13;;;17.96;69.81
48800;BME280;34611;47.964;7.982;2022-07-04T19:56:24;97046.97;;;17.95;69.81
48800;BME280;34611;47.964;7.982;2022-07-04T20:03:25;97049.81;;;17.94;69.85
48800;BME280;34611;47.964;7.982;2022-07-04T20:10:25;97058.50;;;17.94;69.83
48800;BME280;34611;47.964;7.982;2022-07-04T20:17:26;97053.25;;;17.94;69.70
48800;BME280;34611;47.964;7.982;2022-07-04T20:24:30;97051.59;;;17.93;70.04
48800;BME280;34611;47.964;7.982;2022-07-04T20:31:33;97060.31;;;17.94;69.84
48800;BME280;34611;47.964;7.982;2022-07-04T20:38:33;97056.69;;;17.95;69.81
48800;BME280;34611;47.964;7.982;2022-07-04T20:45:33;97064.75;;;17.93;69.89
48800;BME280;34611;47.964;7.982;2022-07-04T20:52:34;97068.22;;;17.94;69.85
48800;BME280;34611;47.964;7.982;2022-07-04T20:59:34;97060.31;;;17.94;69.97
48800;BME280;34611;47.964;7.982;2022-07-04T21:06:35;97070.84;;;17.94;69.81
48800;BME280;34611;47.964;7.982;2022-07-04T21:13:35;97076.91;;;17.94;69.78
48800;BME280;34611;47.964;7.982;2022-07-04T21:20:35;97088.25;;;17.95;69.77
48800;BME280;34611;47.964;7.982;2022-07-04T21:27:35;97086.63;;;17.94;69.79
48800;BME280;34611;47.964;7.982;2022-07-04T21:34:36;97087.44;;;17.94;69.89
48800;BME280;34611;47.964;7.982;2022-07-04T21:41:36;97089.25;;;17.94;69.86
48800;BME280;34611;47.964;7.982;2022-07-04T21:48:36;97089.25;;;17.94;69.80
48800;BME280;34611;47.964;7.982;2022-07-04T21:55:37;97077.06;;;17.93;69.81
48800;BME280;34611;47.964;7.982;2022-07-04T22:02:37;97082.34;;;17.93;69.88
48800;BME280;34611;47.964;7.982;2022-07-04T22:09:37;97085.78;;;17.93;69.85
48800;BME280;34611;47.964;7.982;2022-07-04T22:16:37;97086.63;;;17.94;69.72
48800;BME280;34611;47.964;7.982;2022-07-04T22:23:39;97102.41;;;17.94;69.86
48800;BME280;34611;47.964;7.982;2022-07-04T22:30:39;97103.38;;;17.93;69.89
48800;BME280;34611;47.964;7.982;2022-07-04T22:37:39;97109.44;;;17.93;69.76
48800;BME280;34611;47.964;7.982;2022-07-04T22:44:40;97106.00;;;17.93;69.89
48800;BME280;34611;47.964;7.982;2022-07-04T22:51:40;97112.28;;;17.92;69.72
48800;BME280;34611;47.964;7.982;2022-07-04T22:58:40;97106.00;;;17.93;69.76
48800;BME280;34611;47.964;7.982;2022-07-04T23:05:41;97109.44;;;17.93;69.79
48800;BME280;34611;47.964;7.982;2022-07-04T23:12:41;97112.09;;;17.93;69.75
48800;BME280;34611;47.964;7.982;2022-07-04T23:19:41;97111.28;;;17.93;69.87
48800;BME280;34611;47.964;7.982;2022-07-04T23:26:41;97119.16;;;17.93;69.74
48800;BME280;34611;47.964;7.982;2022-07-04T23:33:42;97113.91;;;17.93;69.87
48800;BME280;34611;47.964;7.982;2022-07-04T23:40:42;97116.53;;;17.93;69.67
48800;BME280;34611;47.964;7.982;2022-07-04T23:47:42;97123.44;;;17.94;69.66
48800;BME280;34611;47.964;7.982;2022-07-04T23:54:43;97114.72;;;17.93;69.80
